sensor_id;sensor_type;location;lat;lon;timestamp;P1;durP1;ratioP1;P2;durP2;ratioP2
59099;SDS011;44884;52.730;6.964;2024-02-15T00:00:39;7.03;;;5.75;;
59099;SDS011;44884;52.730;6.964;2024-02-15T00:03:05;7.78;;;6.25;;
59099;SDS011;44884;52.730;6.964;2024-02-15T00:05:32;10.02;;;7.18;;
59099;SDS011;44884;52.730;6.964;2024-02-15T00:08:01;8.52;;;6.85;;
59099;SDS011;44884;52.730;6.964;2024-02-15T00:10:27;7.13;;;5.68;;
59099;SDS011;44884;52.730;6.964;2024-02-15T00:12:53;9.88;;;7.85;;
59099;SDS011;44884;52.730;6.964;2024-02-15T00:15:20;10.07;;;7.50;;
59099;SDS011;44884;52.730;6.964;2024-02-15T00:17:46;10.73;;;8.15;;
59099;SDS011;44884;52.730;6.964;2024-02-15T00:20:12;13.02;;;10.35;;
59099;SDS011;44884;52.730;6.964;2024-02-15T00:22:39;11.40;;;9.07;;
59099;SDS011;44884;52.730;6.964;2024-02-15T00:25:06;18.63;;;10.70;;
59099;SDS011;44884;52.730;6.964;2024-02-15T00:27:34;16.10;;;10.43;;
59099;SDS011;44884;52.730;6.964;2024-02-15T00:30:00;14.45;;;8.75;;
59099;SDS011;44884;52.730;6.964;2024-02-15T00:32:26;11.25;;;8.57;;
59099;SDS011;44884;52.730;6.964;2024-02-15T00:34:52;11.63;;;7.57;;
59099;SDS011;44884;52.730;6.964;2024-02-15T00:37:18;11.20;;;8.13;;
59099;SDS011;44884;52.730;6.964;2024-02-15T00:39:45;12.85;;;9.05;;
59099;SDS011;44884;52.730;6.964;2024-02-15T00:42:11;20.25;;;9.98;;
59099;SDS011;44884;52.730;6.964;2024-02-15T00:44:38;16.80;;;9.43;;
59099;SDS011;44884;52.730;6.964;2024-02-15T00:47:04;13.95;;;9.73;;
59099;SDS011;44884;52.730;6.964;2024-02-15T00:49:30;12.05;;;7.88;;
59099;SDS011;44884;52.730;6.964;2024-02-15T00:51:57;12.27;;;7.53;;
59099;SDS011;44884;52.730;6.964;2024-02-15T00:54:23;11.73;;;8.60;;
59099;SDS011;44884;52.730;6.964;2024-02-15T00:56:49;11.57;;;8.43;;
59099;SDS011;44884;52.730;6.964;2024-02-15T00:59:15;13.48;;;8.30;;
59099;SDS011;44884;52.730;6.964;2024-02-15T01:01:41;10.82;;;7.53;;
59099;SDS011;44884;52.730;6.964;2024-02-15T01:04:07;13.27;;;8.30;;
59099;SDS011;44884;52.730;6.964;2024-02-15T01:06:33;10.73;;;7.47;;
59099;SDS011;44884;52.730;6.964;2024-02-15T01:09:00;16.40;;;9.07;;
59099;SDS011;44884;52.730;6.964;2024-02-15T01:11:29;11.98;;;8.05;;
59099;SDS011;44884;52.730;6.964;2024-02-15T01:13:57;12.63;;;8.07;;
59099;SDS011;44884;52.730;6.964;2024-02-15T01:16:23;14.32;;;8.45;;
59099;SDS011;44884;52.730;6.964;2024-02-15T01:18:52;10.68;;;7.47;;
59099;SDS011;44884;52.730;6.964;2024-02-15T01:21:18;11.82;;;7.60;;
59099;SDS011;44884;52.730;6.964;2024-02-15T01:23:44;11.73;;;7.47;;
59099;SDS011;44884;52.730;6.964;2024-02-15T01:26:11;13.00;;;7.75;;
59099;SDS011;44884;52.730;6.964;2024-02-15T01:28:39;12.68;;;8.20;;
59099;SDS011;44884;52.730;6.964;2024-02-15T01:31:08;10.77;;;7.57;;
59099;SDS011;44884;52.730;6.964;2024-02-15T01:33:35;17.17;;;9.00;;
59099;SDS011;44884;52.730;6.964;2024-02-15T01:36:02;12.48;;;7.70;;
59099;SDS011;44884;52.730;6.964;2024-02-15T01:38:28;15.10;;;8.43;;
59099;SDS011;44884;52.730;6.964;2024-02-15T01:40:54;13.05;;;8.65;;
59099;SDS011;44884;52.730;6.964;2024-02-15T01:43:20;10.18;;;7.68;;
59099;SDS011;44884;52.730;6.964;2024-02-15T01:45:46;12.15;;;8.50;;
59099;SDS011;44884;52.730;6.964;2024-02-15T01:48:14;11.88;;;8.57;;
59099;SDS011;44884;52.730;6.964;2024-02-15T01:50:41;13.55;;;8.82;;
59099;SDS011;44884;52.730;6.964;2024-02-15T01:53:08;17.52;;;10.45;;
59099;SDS011;44884;52.730;6.964;2024-02-15T01:55:35;12.25;;;7.80;;
59099;SDS011;44884;52.730;6.964;2024-02-15T01:58:01;10.90;;;8.35;;
59099;SDS011;44884;52.730;6.964;2024-02-15T02:00:28;12.50;;;9.32;;
59099;SDS011;44884;52.730;6.964;2024-02-15T02:02:56;19.10;;;8.60;;
59099;SDS011;44884;52.730;6.964;2024-02-15T02:05:27;15.20;;;8.30;;
59099;SDS011;44884;52.730;6.964;2024-02-15T02:07:55;12.75;;;9.23;;
59099;SDS011;44884;52.730;6.964;2024-02-15T02:10:24;11.60;;;8.00;;
59099;SDS011;44884;52.730;6.964;2024-02-15T02:12:52;11.93;;;7.82;;
59099;SDS011;44884;52.730;6.964;2024-02-15T02:15:18;12.60;;;8.30;;
59099;SDS011;44884;52.730;6.964;2024-02-15T02:17:48;12.85;;;8.07;;
59099;SDS011;44884;52.730;6.964;2024-02-15T02:20:16;10.75;;;7.68;;
59099;SDS011;44884;52.730;6.964;2024-02-15T02:22:42;13.23;;;6.90;;
59099;SDS011;44884;52.730;6.964;2024-02-15T02:25:10;8.50;;;6.88;;
59099;SDS011;44884;52.730;6.964;2024-02-15T02:27:38;12.10;;;7.57;;
59099;SDS011;44884;52.730;6.964;2024-02-15T02:30:05;10.48;;;7.88;;
59099;SDS011;44884;52.730;6.964;2024-02-15T02:32:34;9.10;;;6.75;;
59099;SDS011;44884;52.730;6.964;2024-02-15T02:35:01;11.90;;;7.43;;
59099;SDS011;44884;52.730;6.964;2024-02-15T02:37:28;10.38;;;7.63;;
59099;SDS011;44884;52.730;6.964;2024-02-15T02:39:54;11.18;;;7.40;;
59099;SDS011;44884;52.730;6.964;2024-02-15T02:42:20;11.18;;;7.72;;
59099;SDS011;44884;52.730;6.964;2024-02-15T02:44:47;11.32;;;7.43;;
59099;SDS011;44884;52.730;6.964;2024-02-15T02:47:13;13.32;;;8.85;;
59099;SDS011;44884;52.730;6.964;2024-02-15T02:49:40;10.80;;;7.68;;
59099;SDS011;44884;52.730;6.964;2024-02-15T02:52:06;10.43;;;7.70;;
59099;SDS011;44884;52.730;6.964;2024-02-15T02:54:32;8.98;;;7.22;;
59099;SDS011;44884;52.730;6.964;2024-02-15T02:57:02;7.82;;;6.32;;
59099;SDS011;44884;52.730;6.964;2024-02-15T02:59:32;11.07;;;7.50;;
59099;SDS011;44884;52.730;6.964;2024-02-15T03:01:59;10.45;;;7.57;;
59099;SDS011;44884;52.730;6.964;2024-02-15T03:04:25;10.90;;;8.05;;
59099;SDS011;44884;52.730;6.964;2024-02-15T03:06:51;14.05;;;7.47;;
59099;SDS011;44884;52.730;6.964;2024-02-15T03:09:20;13.85;;;9.30;;
59099;SDS011;44884;52.730;6.964;2024-02-15T03:11:48;10.65;;;7.97;;
59099;SDS011;44884;52.730;6.964;2024-02-15T03:14:14;8.15;;;6.55;;
59099;SDS011;44884;52.730;6.964;2024-02-15T03:16:40;13.40;;;7.47;;
59099;SDS011;44884;52.730;6.964;2024-02-15T03:19:06;10.45;;;7.28;;
59099;SDS011;44884;52.730;6.964;2024-02-15T03:21:36;13.02;;;7.72;;
59099;SDS011;44884;52.730;6.964;2024-02-15T03:24:02;9.38;;;8.05;;
59099;SDS011;44884;52.730;6.964;2024-02-15T03:26:31;10.25;;;7.35;;
59099;SDS011;44884;52.730;6.964;2024-02-15T03:29:05;11.23;;;8.27;;
59099;SDS011;44884;52.730;6.964;2024-02-15T03:31:33;10.93;;;7.63;;
59099;SDS011;44884;52.730;6.964;2024-02-15T03:34:01;11.50;;;7.50;;
59099;SDS011;44884;52.730;6.964;2024-02-15T03:36:27;11.77;;;7.90;;
59099;SDS011;44884;52.730;6.964;2024-02-15T03:38:54;10.63;;;7.82;;
59099;SDS011;44884;52.730;6.964;2024-02-15T03:41:21;10.82;;;8.00;;
59099;SDS011;44884;52.730;6.964;2024-02-15T03:43:47;12.35;;;8.00;;
59099;SDS011;44884;52.730;6.964;2024-02-15T03:46:13;14.25;;;8.27;;
59099;SDS011;44884;52.730;6.964;2024-02-15T03:48:41;11.98;;;8.23;;
59099;SDS011;44884;52.730;6.964;2024-02-15T03:51:09;9.73;;;7.38;;
59099;SDS011;44884;52.730;6.964;2024-02-15T03:53:35;9.75;;;7.45;;
59099;SDS011;44884;52.730;6.964;2024-02-15T03:56:03;14.45;;;7.30;;
59099;SDS011;44884;52.730;6.964;2024-02-15T03:58:29;11.98;;;7.60;;
59099;SDS011;44884;52.730;6.964;2024-02-15T04:00:58;10.25;;;7.78;;
59099;SDS011;44884;52.730;6.964;2024-02-15T04:03:24;12.05;;;7.18;;
59099;SDS011;44884;52.730;6.964;2024-02-15T04:05:50;13.20;;;8.68;;
59099;SDS011;44884;52.730;6.964;2024-02-15T04:08:16;10.88;;;8.20;;
59099;SDS011;44884;52.730;6.964;2024-02-15T04:10:43;10.00;;;7.00;;
59099;SDS011;44884;52.730;6.964;2024-02-15T04:13:11;12.57;;;8.18;;
59099;SDS011;44884;52.730;6.964;2024-02-15T04:15:37;10.70;;;7.63;;
59099;SDS011;44884;52.730;6.964;2024-02-15T04:18:03;10.80;;;6.50;;
59099;SDS011;44884;52.730;6.964;2024-02-15T04:20:30;10.55;;;8.38;;
59099;SDS011;44884;52.730;6.964;2024-02-15T04:22:56;10.45;;;8.05;;
59099;SDS011;44884;52.730;6.964;2024-02-15T04:25:24;10.07;;;6.93;;
59099;SDS011;44884;52.730;6.964;2024-02-15T04:27:53;10.95;;;7.25;;
59099;SDS011;44884;52.730;6.964;2024-02-15T04:30:19;10.55;;;7.18;;
59099;SDS011;44884;52.730;6.964;2024-02-15T04:32:47;10.38;;;7.13;;
59099;SDS011;44884;52.730;6.964;2024-02-15T04:35:13;11.43;;;7.63;;
59099;SDS011;44884;52.730;6.964;2024-02-15T04:37:39;10.15;;;8.10;;
59099;SDS011;44884;52.730;6.964;2024-02-15T04:40:05;10.93;;;7.05;;
59099;SDS011;44884;52.730;6.964;2024-02-15T04:42:38;11.43;;;8.70;;
59099;SDS011;44884;52.730;6.964;2024-02-15T04:45:05;8.82;;;7.32;;
59099;SDS011;44884;52.730;6.964;2024-02-15T04:47:33;11.63;;;7.75;;
59099;SDS011;44884;52.730;6.964;2024-02-15T04:49:59;14.13;;;8.10;;
59099;SDS011;44884;52.730;6.964;2024-02-15T04:52:25;10.25;;;7.78;;
59099;SDS011;44884;52.730;6.964;2024-02-15T04:54:51;10.30;;;7.63;;
59099;SDS011;44884;52.730;6.964;2024-02-15T04:57:23;12.23;;;8.82;;
59099;SDS011;44884;52.730;6.964;2024-02-15T04:59:50;12.82;;;8.77;;
59099;SDS011;44884;52.730;6.964;2024-02-15T05:02:17;12.40;;;9.30;;
59099;SDS011;44884;52.730;6.964;2024-02-15T05:04:44;11.20;;;8.57;;
59099;SDS011;44884;52.730;6.964;2024-02-15T05:07:10;12.45;;;8.77;;
59099;SDS011;44884;52.730;6.964;2024-02-15T05:09:40;10.10;;;8.05;;
59099;SDS011;44884;52.730;6.964;2024-02-15T05:12:06;11.50;;;8.32;;
59099;SDS011;44884;52.730;6.964;2024-02-15T05:14:32;11.77;;;8.85;;
59099;SDS011;44884;52.730;6.964;2024-02-15T05:17:01;10.05;;;8.00;;
59099;SDS011;44884;52.730;6.964;2024-02-15T05:19:27;10.73;;;8.07;;
59099;SDS011;44884;52.730;6.964;2024-02-15T05:21:55;12.07;;;8.15;;
59099;SDS011;44884;52.730;6.964;2024-02-15T05:24:21;11.85;;;8.68;;
59099;SDS011;44884;52.730;6.964;2024-02-15T05:26:47;11.77;;;9.05;;
59099;SDS011;44884;52.730;6.964;2024-02-15T05:29:16;9.40;;;7.43;;
59099;SDS011;44884;52.730;6.964;2024-02-15T05:31:42;11.60;;;8.27;;
59099;SDS011;44884;52.730;6.964;2024-02-15T05:34:09;11.75;;;8.57;;
59099;SDS011;44884;52.730;6.964;2024-02-15T05:36:36;12.38;;;8.98;;
59099;SDS011;44884;52.730;6.964;2024-02-15T05:39:03;15.57;;;8.10;;
59099;SDS011;44884;52.730;6.964;2024-02-15T05:41:30;16.33;;;8.35;;
59099;SDS011;44884;52.730;6.964;2024-02-15T05:43:59;14.15;;;10.00;;
59099;SDS011;44884;52.730;6.964;2024-02-15T05:46:25;11.52;;;8.27;;
59099;SDS011;44884;52.730;6.964;2024-02-15T05:48:53;10.85;;;8.43;;
59099;SDS011;44884;52.730;6.964;2024-02-15T05:51:19;15.70;;;9.43;;
59099;SDS011;44884;52.730;6.964;2024-02-15T05:53:45;13.48;;;9.35;;
59099;SDS011;44884;52.730;6.964;2024-02-15T05:56:11;15.23;;;8.98;;
59099;SDS011;44884;52.730;6.964;2024-02-15T05:58:39;13.40;;;9.38;;
59099;SDS011;44884;52.730;6.964;2024-02-15T06:01:05;14.60;;;8.55;;
59099;SDS011;44884;52.730;6.964;2024-02-15T06:03:32;12.68;;;8.30;;
59099;SDS011;44884;52.730;6.964;2024-02-15T06:06:02;15.68;;;9.50;;
59099;SDS011;44884;52.730;6.964;2024-02-15T06:08:31;16.50;;;10.60;;
59099;SDS011;44884;52.730;6.964;2024-02-15T06:10:58;12.95;;;8.57;;
59099;SDS011;44884;52.730;6.964;2024-02-15T06:13:24;11.38;;;8.27;;
59099;SDS011;44884;52.730;6.964;2024-02-15T06:15:51;10.55;;;8.00;;
59099;SDS011;44884;52.730;6.964;2024-02-15T06:18:20;12.63;;;9.13;;
59099;SDS011;44884;52.730;6.964;2024-02-15T06:20:49;17.58;;;9.60;;
59099;SDS011;44884;52.730;6.964;2024-02-15T06:23:18;17.00;;;10.27;;
59099;SDS011;44884;52.730;6.964;2024-02-15T06:25:45;15.45;;;10.00;;
59099;SDS011;44884;52.730;6.964;2024-02-15T06:28:16;15.68;;;10.80;;
59099;SDS011;44884;52.730;6.964;2024-02-15T06:31:08;13.20;;;9.25;;
59099;SDS011;44884;52.730;6.964;2024-02-15T06:33:52;13.23;;;9.77;;
59099;SDS011;44884;52.730;6.964;2024-02-15T06:36:45;14.32;;;9.35;;
59099;SDS011;44884;52.730;6.964;2024-02-15T06:39:30;14.13;;;9.40;;
59099;SDS011;44884;52.730;6.964;2024-02-15T06:42:06;13.70;;;9.40;;
59099;SDS011;44884;52.730;6.964;2024-02-15T06:44:32;13.00;;;10.13;;
59099;SDS011;44884;52.730;6.964;2024-02-15T06:46:58;17.60;;;9.55;;
59099;SDS011;44884;52.730;6.964;2024-02-15T06:49:24;14.10;;;9.63;;
59099;SDS011;44884;52.730;6.964;2024-02-15T06:51:51;13.57;;;10.10;;
59099;SDS011;44884;52.730;6.964;2024-02-15T06:54:17;16.60;;;9.18;;
59099;SDS011;44884;52.730;6.964;2024-02-15T06:56:47;13.40;;;9.77;;
59099;SDS011;44884;52.730;6.964;2024-02-15T06:59:13;14.85;;;8.85;;
59099;SDS011;44884;52.730;6.964;2024-02-15T07:01:42;14.48;;;10.75;;
59099;SDS011;44884;52.730;6.964;2024-02-15T07:04:09;13.35;;;8.70;;
59099;SDS011;44884;52.730;6.964;2024-02-15T07:06:38;14.35;;;10.18;;
59099;SDS011;44884;52.730;6.964;2024-02-15T07:09:07;15.75;;;11.40;;
59099;SDS011;44884;52.730;6.964;2024-02-15T07:11:33;15.80;;;9.80;;
59099;SDS011;44884;52.730;6.964;2024-02-15T07:14:02;11.55;;;9.55;;
59099;SDS011;44884;52.730;6.964;2024-02-15T07:16:31;12.38;;;9.02;;
59099;SDS011;44884;52.730;6.964;2024-02-15T07:18:58;16.23;;;10.07;;
59099;SDS011;44884;52.730;6.964;2024-02-15T07:21:25;14.07;;;9.73;;
59099;SDS011;44884;52.730;6.964;2024-02-15T07:23:52;14.68;;;10.07;;
59099;SDS011;44884;52.730;6.964;2024-02-15T07:26:20;13.10;;;9.75;;
59099;SDS011;44884;52.730;6.964;2024-02-15T07:28:49;15.70;;;10.30;;
59099;SDS011;44884;52.730;6.964;2024-02-15T07:31:17;14.27;;;9.70;;
59099;SDS011;44884;52.730;6.964;2024-02-15T07:33:43;13.57;;;9.45;;
59099;SDS011;44884;52.730;6.964;2024-02-15T07:36:09;14.35;;;10.27;;
59099;SDS011;44884;52.730;6.964;2024-02-15T07:38:35;13.35;;;9.05;;
59099;SDS011;44884;52.730;6.964;2024-02-15T07:41:01;14.50;;;10.27;;
59099;SDS011;44884;52.730;6.964;2024-02-15T07:43:27;15.73;;;9.38;;
59099;SDS011;44884;52.730;6.964;2024-02-15T07:45:53;12.02;;;8.70;;
59099;SDS011;44884;52.730;6.964;2024-02-15T07:48:19;11.07;;;8.70;;
59099;SDS011;44884;52.730;6.964;2024-02-15T07:50:45;14.70;;;10.10;;
59099;SDS011;44884;52.730;6.964;2024-02-15T07:53:11;15.98;;;10.23;;
59099;SDS011;44884;52.730;6.964;2024-02-15T07:55:38;14.05;;;9.27;;
59099;SDS011;44884;52.730;6.964;2024-02-15T07:58:06;12.52;;;9.05;;
59099;SDS011;44884;52.730;6.964;2024-02-15T08:00:32;11.52;;;8.35;;
59099;SDS011;44884;52.730;6.964;2024-02-15T08:02:58;12.30;;;8.65;;
59099;SDS011;44884;52.730;6.964;2024-02-15T08:05:25;11.43;;;8.85;;
59099;SDS011;44884;52.730;6.964;2024-02-15T08:07:51;14.15;;;8.98;;
59099;SDS011;44884;52.730;6.964;2024-02-15T08:10:22;11.75;;;8.43;;
59099;SDS011;44884;52.730;6.964;2024-02-15T08:12:48;14.02;;;9.48;;
59099;SDS011;44884;52.730;6.964;2024-02-15T08:15:17;13.48;;;8.93;;
59099;SDS011;44884;52.730;6.964;2024-02-15T08:17:44;13.90;;;8.57;;
59099;SDS011;44884;52.730;6.964;2024-02-15T08:20:14;11.32;;;8.73;;
59099;SDS011;44884;52.730;6.964;2024-02-15T08:22:42;17.23;;;9.93;;
59099;SDS011;44884;52.730;6.964;2024-02-15T08:25:10;16.15;;;8.32;;
59099;SDS011;44884;52.730;6.964;2024-02-15T08:27:43;11.65;;;7.57;;
59099;SDS011;44884;52.730;6.964;2024-02-15T08:30:09;12.48;;;8.50;;
59099;SDS011;44884;52.730;6.964;2024-02-15T08:32:39;14.80;;;8.70;;
59099;SDS011;44884;52.730;6.964;2024-02-15T08:35:07;9.55;;;7.47;;
59099;SDS011;44884;52.730;6.964;2024-02-15T08:37:34;12.52;;;8.00;;
59099;SDS011;44884;52.730;6.964;2024-02-15T08:40:01;12.80;;;8.55;;
59099;SDS011;44884;52.730;6.964;2024-02-15T08:42:27;10.45;;;7.18;;
59099;SDS011;44884;52.730;6.964;2024-02-15T08:44:53;14.13;;;7.82;;
59099;SDS011;44884;52.730;6.964;2024-02-15T08:47:19;12.93;;;7.85;;
59099;SDS011;44884;52.730;6.964;2024-02-15T08:49:46;11.63;;;8.63;;
59099;SDS011;44884;52.730;6.964;2024-02-15T08:52:12;10.50;;;7.93;;
59099;SDS011;44884;52.730;6.964;2024-02-15T08:54:38;12.10;;;8.27;;
59099;SDS011;44884;52.730;6.964;2024-02-15T08:57:04;13.07;;;9.45;;
59099;SDS011;44884;52.730;6.964;2024-02-15T08:59:30;10.38;;;7.75;;
59099;SDS011;44884;52.730;6.964;2024-02-15T09:01:56;15.15;;;8.18;;
59099;SDS011;44884;52.730;6.964;2024-02-15T09:04:23;8.27;;;6.47;;
59099;SDS011;44884;52.730;6.964;2024-02-15T09:06:51;9.43;;;7.75;;
59099;SDS011;44884;52.730;6.964;2024-02-15T09:09:17;13.82;;;7.63;;
59099;SDS011;44884;52.730;6.964;2024-02-15T09:11:43;10.00;;;7.57;;
59099;SDS011;44884;52.730;6.964;2024-02-15T09:14:09;13.45;;;7.43;;
59099;SDS011;44884;52.730;6.964;2024-02-15T09:16:35;12.00;;;8.32;;
59099;SDS011;44884;52.730;6.964;2024-02-15T09:19:02;11.95;;;8.60;;
59099;SDS011;44884;52.730;6.964;2024-02-15T09:21:28;11.13;;;8.02;;
59099;SDS011;44884;52.730;6.964;2024-02-15T09:23:54;11.30;;;8.10;;
59099;SDS011;44884;52.730;6.964;2024-02-15T09:26:21;8.80;;;6.57;;
59099;SDS011;44884;52.730;6.964;2024-02-15T09:28:47;10.52;;;7.90;;
59099;SDS011;44884;52.730;6.964;2024-02-15T09:31:13;11.43;;;8.25;;
59099;SDS011;44884;52.730;6.964;2024-02-15T09:33:39;11.38;;;7.93;;
59099;SDS011;44884;52.730;6.964;2024-02-15T09:36:05;9.38;;;6.95;;
59099;SDS011;44884;52.730;6.964;2024-02-15T09:38:32;10.40;;;8.27;;
59099;SDS011;44884;52.730;6.964;2024-02-15T09:40:58;13.05;;;8.52;;
59099;SDS011;44884;52.730;6.964;2024-02-15T09:43:24;15.65;;;9.30;;
59099;SDS011;44884;52.730;6.964;2024-02-15T09:45:51;14.05;;;8.68;;
59099;SDS011;44884;52.730;6.964;2024-02-15T09:48:21;7.72;;;6.88;;
59099;SDS011;44884;52.730;6.964;2024-02-15T09:50:49;11.50;;;7.25;;
59099;SDS011;44884;52.730;6.964;2024-02-15T09:53:21;9.30;;;7.35;;
59099;SDS011;44884;52.730;6.964;2024-02-15T09:55:51;10.10;;;7.25;;
59099;SDS011;44884;52.730;6.964;2024-02-15T09:58:29;10.95;;;7.03;;
59099;SDS011;44884;52.730;6.964;2024-02-15T10:00:59;9.73;;;7.50;;
59099;SDS011;44884;52.730;6.964;2024-02-15T10:03:25;8.02;;;6.20;;
59099;SDS011;44884;52.730;6.964;2024-02-15T10:05:53;11.68;;;6.32;;
59099;SDS011;44884;52.730;6.964;2024-02-15T10:08:19;9.10;;;6.72;;
59099;SDS011;44884;52.730;6.964;2024-02-15T10:10:47;8.13;;;6.70;;
59099;SDS011;44884;52.730;6.964;2024-02-15T10:13:14;12.95;;;8.73;;
59099;SDS011;44884;52.730;6.964;2024-02-15T10:15:40;9.00;;;7.95;;
59099;SDS011;44884;52.730;6.964;2024-02-15T10:18:08;8.65;;;6.18;;
59099;SDS011;44884;52.730;6.964;2024-02-15T10:20:40;9.75;;;7.90;;
59099;SDS011;44884;52.730;6.964;2024-02-15T10:23:10;18.17;;;8.88;;
59099;SDS011;44884;52.730;6.964;2024-02-15T10:25:36;9.05;;;7.13;;
59099;SDS011;44884;52.730;6.964;2024-02-15T10:28:03;8.70;;;7.40;;
59099;SDS011;44884;52.730;6.964;2024-02-15T10:30:35;12.65;;;7.72;;
59099;SDS011;44884;52.730;6.964;2024-02-15T10:33:05;9.88;;;8.07;;
59099;SDS011;44884;52.730;6.964;2024-02-15T10:35:32;10.02;;;7.88;;
59099;SDS011;44884;52.730;6.964;2024-02-15T10:38:11;10.90;;;7.82;;
59099;SDS011;44884;52.730;6.964;2024-02-15T10:40:38;11.73;;;8.50;;
59099;SDS011;44884;52.730;6.964;2024-02-15T10:43:08;12.43;;;8.65;;
59099;SDS011;44884;52.730;6.964;2024-02-15T10:45:38;12.60;;;8.40;;
59099;SDS011;44884;52.730;6.964;2024-02-15T10:48:08;9.18;;;7.45;;
59099;SDS011;44884;52.730;6.964;2024-02-15T10:50:34;10.85;;;7.28;;
59099;SDS011;44884;52.730;6.964;2024-02-15T10:53:00;7.72;;;6.38;;
59099;SDS011;44884;52.730;6.964;2024-02-15T10:57:59;11.98;;;7.35;;
59099;SDS011;44884;52.730;6.964;2024-02-15T11:00:28;12.48;;;7.22;;
59099;SDS011;44884;52.730;6.964;2024-02-15T11:03:07;6.80;;;6.10;;
59099;SDS011;44884;52.730;6.964;2024-02-15T11:05:34;8.98;;;7.47;;
59099;SDS011;44884;52.730;6.964;2024-02-15T11:08:07;9.35;;;6.20;;
59099;SDS011;44884;52.730;6.964;2024-02-15T11:10:37;10.23;;;7.28;;
59099;SDS011;44884;52.730;6.964;2024-02-15T11:13:04;9.40;;;7.80;;
59099;SDS011;44884;52.730;6.964;2024-02-15T11:15:51;6.90;;;6.05;;
59099;SDS011;44884;52.730;6.964;2024-02-15T11:21:03;7.68;;;6.35;;
59099;SDS011;44884;52.730;6.964;2024-02-15T11:23:29;7.70;;;6.05;;
59099;SDS011;44884;52.730;6.964;2024-02-15T11:25:55;7.50;;;6.22;;
59099;SDS011;44884;52.730;6.964;2024-02-15T11:28:34;7.53;;;6.20;;
59099;SDS011;44884;52.730;6.964;2024-02-15T11:31:02;7.63;;;5.43;;
59099;SDS011;44884;52.730;6.964;2024-02-15T11:33:29;7.72;;;5.80;;
59099;SDS011;44884;52.730;6.964;2024-02-15T11:38:30;8.13;;;5.95;;
59099;SDS011;44884;52.730;6.964;2024-02-15T11:46:16;8.48;;;6.07;;
59099;SDS011;44884;52.730;6.964;2024-02-15T11:48:45;6.20;;;5.63;;
59099;SDS011;44884;52.730;6.964;2024-02-15T11:51:27;7.32;;;6.07;;
59099;SDS011;44884;52.730;6.964;2024-02-15T11:54:06;7.88;;;5.97;;
59099;SDS011;44884;52.730;6.964;2024-02-15T11:59:29;5.95;;;5.10;;
59099;SDS011;44884;52.730;6.964;2024-02-15T12:02:07;5.82;;;4.95;;
59099;SDS011;44884;52.730;6.964;2024-02-15T12:04:52;5.40;;;4.90;;
59099;SDS011;44884;52.730;6.964;2024-02-15T12:07:47;6.95;;;5.15;;
59099;SDS011;44884;52.730;6.964;2024-02-15T12:10:32;6.25;;;5.38;;
59099;SDS011;44884;52.730;6.964;2024-02-15T12:13:34;5.70;;;4.78;;
59099;SDS011;44884;52.730;6.964;2024-02-15T12:16:18;5.60;;;4.80;;
59099;SDS011;44884;52.730;6.964;2024-02-15T12:19:03;6.50;;;5.72;;
59099;SDS011;44884;52.730;6.964;2024-02-15T12:21:29;6.10;;;4.85;;
59099;SDS011;44884;52.730;6.964;2024-02-15T12:23:55;5.95;;;5.43;;
59099;SDS011;44884;52.730;6.964;2024-02-15T12:26:21;5.40;;;4.82;;
59099;SDS011;44884;52.730;6.964;2024-02-15T12:28:53;5.38;;;4.85;;
59099;SDS011;44884;52.730;6.964;2024-02-15T12:31:24;12.73;;;5.57;;
59099;SDS011;44884;52.730;6.964;2024-02-15T12:34:02;5.47;;;4.68;;
59099;SDS011;44884;52.730;6.964;2024-02-15T12:36:31;5.65;;;5.00;;
59099;SDS011;44884;52.730;6.964;2024-02-15T12:38:59;8.57;;;4.88;;
59099;SDS011;44884;52.730;6.964;2024-02-15T12:41:25;6.93;;;5.10;;
59099;SDS011;44884;52.730;6.964;2024-02-15T12:43:54;6.20;;;5.60;;
59099;SDS011;44884;52.730;6.964;2024-02-15T12:46:22;5.20;;;4.63;;
59099;SDS011;44884;52.730;6.964;2024-02-15T12:48:48;8.10;;;5.60;;
59099;SDS011;44884;52.730;6.964;2024-02-15T12:51:14;6.68;;;4.80;;
59099;SDS011;44884;52.730;6.964;2024-02-15T12:53:41;6.55;;;5.50;;
59099;SDS011;44884;52.730;6.964;2024-02-15T12:56:07;6.00;;;5.32;;
59099;SDS011;44884;52.730;6.964;2024-02-15T12:58:34;5.75;;;4.70;;
59099;SDS011;44884;52.730;6.964;2024-02-15T13:01:00;5.88;;;4.82;;
59099;SDS011;44884;52.730;6.964;2024-02-15T13:03:27;5.80;;;5.00;;
59099;SDS011;44884;52.730;6.964;2024-02-15T13:05:53;4.70;;;4.25;;
59099;SDS011;44884;52.730;6.964;2024-02-15T13:08:19;6.55;;;5.38;;
59099;SDS011;44884;52.730;6.964;2024-02-15T13:10:46;8.32;;;5.53;;
59099;SDS011;44884;52.730;6.964;2024-02-15T13:13:12;6.07;;;4.88;;
59099;SDS011;44884;52.730;6.964;2024-02-15T13:15:42;6.55;;;5.07;;
59099;SDS011;44884;52.730;6.964;2024-02-15T13:18:09;6.50;;;5.15;;
59099;SDS011;44884;52.730;6.964;2024-02-15T13:20:38;5.85;;;4.85;;
59099;SDS011;44884;52.730;6.964;2024-02-15T13:23:05;6.53;;;4.95;;
59099;SDS011;44884;52.730;6.964;2024-02-15T13:25:38;6.68;;;5.40;;
59099;SDS011;44884;52.730;6.964;2024-02-15T13:28:04;7.72;;;4.90;;
59099;SDS011;44884;52.730;6.964;2024-02-15T13:30:30;6.47;;;5.00;;
59099;SDS011;44884;52.730;6.964;2024-02-15T13:32:56;6.47;;;4.97;;
59099;SDS011;44884;52.730;6.964;2024-02-15T13:35:23;6.57;;;5.93;;
59099;SDS011;44884;52.730;6.964;2024-02-15T13:37:50;6.20;;;4.85;;
59099;SDS011;44884;52.730;6.964;2024-02-15T13:40:19;5.07;;;4.60;;
59099;SDS011;44884;52.730;6.964;2024-02-15T13:42:48;6.68;;;5.15;;
59099;SDS011;44884;52.730;6.964;2024-02-15T13:45:21;4.97;;;4.50;;
59099;SDS011;44884;52.730;6.964;2024-02-15T13:47:55;6.05;;;5.30;;
59099;SDS011;44884;52.730;6.964;2024-02-15T13:50:22;7.22;;;4.93;;
59099;SDS011;44884;52.730;6.964;2024-02-15T13:52:48;7.45;;;5.30;;
59099;SDS011;44884;52.730;6.964;2024-02-15T13:55:15;7.78;;;5.28;;
59099;SDS011;44884;52.730;6.964;2024-02-15T13:57:43;6.80;;;5.53;;
59099;SDS011;44884;52.730;6.964;2024-02-15T14:00:09;6.93;;;5.97;;
59099;SDS011;44884;52.730;6.964;2024-02-15T14:02:40;7.03;;;4.93;;
59099;SDS011;44884;52.730;6.964;2024-02-15T14:05:08;7.05;;;5.15;;
59099;SDS011;44884;52.730;6.964;2024-02-15T14:07:34;6.05;;;5.43;;
59099;SDS011;44884;52.730;6.964;2024-02-15T14:10:01;5.97;;;4.97;;
59099;SDS011;44884;52.730;6.964;2024-02-15T14:12:28;6.90;;;5.68;;
59099;SDS011;44884;52.730;6.964;2024-02-15T14:14:54;7.80;;;5.32;;
59099;SDS011;44884;52.730;6.964;2024-02-15T14:17:21;7.20;;;5.18;;
59099;SDS011;44884;52.730;6.964;2024-02-15T14:19:47;6.25;;;5.05;;
59099;SDS011;44884;52.730;6.964;2024-02-15T14:22:13;8.55;;;5.47;;
59099;SDS011;44884;52.730;6.964;2024-02-15T14:24:44;7.65;;;5.47;;
59099;SDS011;44884;52.730;6.964;2024-02-15T14:27:10;7.05;;;5.45;;
59099;SDS011;44884;52.730;6.964;2024-02-15T14:29:39;8.35;;;5.97;;
59099;SDS011;44884;52.730;6.964;2024-02-15T14:32:25;6.95;;;5.45;;
59099;SDS011;44884;52.730;6.964;2024-02-15T14:35:10;7.22;;;5.10;;
59099;SDS011;44884;52.730;6.964;2024-02-15T14:37:36;6.72;;;5.78;;
59099;SDS011;44884;52.730;6.964;2024-02-15T14:40:02;6.78;;;5.43;;
59099;SDS011;44884;52.730;6.964;2024-02-15T14:42:28;6.30;;;4.85;;
59099;SDS011;44884;52.730;6.964;2024-02-15T14:44:54;5.53;;;5.03;;
59099;SDS011;44884;52.730;6.964;2024-02-15T14:47:20;4.95;;;4.40;;
59099;SDS011;44884;52.730;6.964;2024-02-15T14:49:47;5.72;;;5.20;;
59099;SDS011;44884;52.730;6.964;2024-02-15T14:52:13;6.38;;;5.60;;
59099;SDS011;44884;52.730;6.964;2024-02-15T14:54:39;6.13;;;4.78;;
59099;SDS011;44884;52.730;6.964;2024-02-15T14:57:05;6.22;;;5.20;;
59099;SDS011;44884;52.730;6.964;2024-02-15T14:59:31;5.55;;;4.53;;